createdAt,value
2023-04-03T00:00:58.159Z,6.10
2023-04-03T00:03:25.435Z,6.10
2023-04-03T00:05:52.561Z,6.10
2023-04-03T00:08:20.278Z,6.10
2023-04-03T00:10:47.620Z,6.10
2023-04-03T00:13:15.481Z,6.10
2023-04-03T00:15:42.797Z,6.10
2023-04-03T00:18:10.318Z,6.10
2023-04-03T00:20:37.972Z,6.10
2023-04-03T00:23:05.388Z,6.00
2023-04-03T00:25:32.503Z,6.00
2023-04-03T00:27:59.623Z,6.00
2023-04-03T00:30:26.701Z,6.00
2023-04-03T00:32:54.633Z,5.90
2023-04-03T00:35:23.396Z,5.90
2023-04-03T00:37:53.681Z,5.90
2023-04-03T00:40:23.228Z,5.90
2023-04-03T00:42:56.965Z,5.80
2023-04-03T00:45:36.218Z,5.80
2023-04-03T00:48:07.389Z,5.80
2023-04-03T00:50:39.475Z,5.70
2023-04-03T00:53:10.820Z,5.70
2023-04-03T00:55:39.520Z,5.70
2023-04-03T00:58:09.136Z,5.60
2023-04-03T01:00:43.197Z,5.60
2023-04-03T01:03:10.274Z,5.60
2023-04-03T01:05:40.917Z,5.50
2023-04-03T01:08:08.347Z,5.50
2023-04-03T01:10:35.393Z,5.50
2023-04-03T01:13:02.703Z,5.40
2023-04-03T01:15:35.803Z,5.40
2023-04-03T01:18:03.676Z,5.40
2023-04-03T01:20:36.800Z,5.40
2023-04-03T01:24:07.092Z,5.30
2023-04-03T01:26:35.029Z,5.30
2023-04-03T01:29:02.479Z,5.20
2023-04-03T01:31:54.627Z,5.20
2023-04-03T01:34:22.935Z,5.20
2023-04-03T01:36:52.055Z,5.10
2023-04-03T01:39:19.457Z,5.10
2023-04-03T01:41:47.220Z,5.10
2023-04-03T01:44:21.745Z,5.10
2023-04-03T01:46:49.068Z,5.00
2023-04-03T01:49:15.872Z,5.00
2023-04-03T01:51:42.794Z,5.00
2023-04-03T01:54:09.706Z,5.00
2023-04-03T01:56:36.570Z,4.90
2023-04-03T01:59:03.650Z,4.90
2023-04-03T02:01:31.321Z,4.90
2023-04-03T02:03:58.516Z,4.80
2023-04-03T02:11:07.972Z,4.70
2023-04-03T02:13:35.099Z,4.70
2023-04-03T02:16:09.018Z,4.60
2023-04-03T02:18:35.858Z,4.60
2023-04-03T02:21:02.686Z,4.60
2023-04-03T02:23:29.730Z,4.60
2023-04-03T02:26:12.625Z,4.50
2023-04-03T02:28:40.579Z,4.50
2023-04-03T02:31:08.674Z,4.50
2023-04-03T02:33:37.815Z,4.50
2023-04-03T02:36:09.528Z,4.40
2023-04-03T02:38:38.068Z,4.40
2023-04-03T02:41:09.235Z,4.40
2023-04-03T02:43:36.595Z,4.40
2023-04-03T02:46:06.380Z,4.30
2023-04-03T02:48:33.736Z,4.30
2023-04-03T02:51:00.648Z,4.30
2023-04-03T02:53:27.659Z,4.30
2023-04-03T02:55:54.670Z,4.20
2023-04-03T02:58:21.846Z,4.20
2023-04-03T03:00:48.906Z,4.20
2023-04-03T03:03:16.091Z,4.20
2023-04-03T03:05:43.207Z,4.10
2023-04-03T03:08:10.271Z,4.10
2023-04-03T03:10:37.780Z,4.10
2023-04-03T03:13:04.977Z,4.10
2023-04-03T03:15:32.146Z,4.10
2023-04-03T03:17:58.962Z,4.00
2023-04-03T03:20:26.569Z,4.00
2023-04-03T03:22:53.566Z,4.00
2023-04-03T03:25:20.394Z,4.00
2023-04-03T03:27:47.192Z,4.00
2023-04-03T03:30:14.077Z,4.00
2023-04-03T03:32:41.202Z,3.90
2023-04-03T03:35:08.597Z,3.90
2023-04-03T03:37:35.522Z,3.90
2023-04-03T03:40:02.391Z,3.90
2023-04-03T03:42:30.703Z,3.90
2023-04-03T03:44:57.683Z,3.80
2023-04-03T03:47:24.844Z,3.80
2023-04-03T03:49:51.993Z,3.80
2023-04-03T03:52:18.968Z,3.80
2023-04-03T03:54:45.952Z,3.70
2023-04-03T03:57:13.440Z,3.70
2023-04-03T03:59:42.682Z,3.70
2023-04-03T04:02:09.776Z,3.70
2023-04-03T04:04:37.764Z,3.70
2023-04-03T04:07:05.355Z,3.70
2023-04-03T04:09:34.401Z,3.60
2023-04-03T04:12:01.608Z,3.60
2023-04-03T04:14:30.607Z,3.60
2023-04-03T04:16:57.958Z,3.60
2023-04-03T04:19:27.123Z,3.60
2023-04-03T04:21:54.833Z,3.50
2023-04-03T04:24:23.660Z,3.50
2023-04-03T04:26:52.573Z,3.50
2023-04-03T04:29:21.031Z,3.50
2023-04-03T04:31:50.522Z,3.40
2023-04-03T04:34:17.992Z,3.40
2023-04-03T04:36:45.000Z,3.40
2023-04-03T04:39:12.407Z,3.40
2023-04-03T04:41:40.750Z,3.40
2023-04-03T04:44:07.921Z,3.40
2023-04-03T04:46:34.866Z,3.30
2023-04-03T04:49:02.291Z,3.30
2023-04-03T04:51:40.987Z,3.30
2023-04-03T04:54:16.762Z,3.20
2023-04-03T04:56:44.305Z,3.20
2023-04-03T04:59:11.351Z,3.20
2023-04-03T05:01:38.819Z,3.20
2023-04-03T05:04:10.431Z,3.20
2023-04-03T05:06:38.329Z,3.20
2023-04-03T05:09:10.774Z,3.10
2023-04-03T05:11:38.282Z,3.10
2023-04-03T05:14:07.455Z,3.10
2023-04-03T05:16:35.916Z,3.10
2023-04-03T05:19:02.806Z,3.10
2023-04-03T05:21:33.595Z,3.00
2023-04-03T05:24:05.334Z,3.00
2023-04-03T05:26:34.918Z,3.00
2023-04-03T05:29:03.407Z,3.00
2023-04-03T05:31:31.274Z,3.00
2023-04-03T05:33:59.314Z,3.00
2023-04-03T05:36:28.210Z,3.00
2023-04-03T05:38:59.990Z,3.00
2023-04-03T05:41:27.050Z,3.00
2023-04-03T05:43:54.015Z,3.00
2023-04-03T05:46:23.077Z,3.00
2023-04-03T05:48:54.104Z,3.00
2023-04-03T05:51:29.606Z,3.00
2023-04-03T05:54:35.267Z,3.00
2023-04-03T05:57:12.865Z,3.10
2023-04-03T05:59:41.811Z,3.10
2023-04-03T06:02:12.369Z,3.20
2023-04-03T06:04:40.280Z,3.20
2023-04-03T06:07:08.500Z,3.30
2023-04-03T06:09:35.662Z,3.30
2023-04-03T06:12:02.774Z,3.40
2023-04-03T06:14:30.578Z,3.50
2023-04-03T06:16:57.846Z,3.60
2023-04-03T06:19:24.999Z,3.60
2023-04-03T06:21:55.937Z,3.70
2023-04-03T06:24:26.087Z,3.80
2023-04-03T06:26:54.236Z,3.90
2023-04-03T06:29:21.518Z,4.00
2023-04-03T06:31:49.426Z,4.10
2023-04-03T06:34:19.201Z,4.20
2023-04-03T06:36:46.189Z,4.30
2023-04-03T06:39:21.294Z,4.40
2023-04-03T06:41:48.350Z,4.50
2023-04-03T06:44:17.015Z,4.50
2023-04-03T06:46:46.331Z,4.60
2023-04-03T06:49:13.876Z,4.70
2023-04-03T06:51:40.724Z,4.80
2023-04-03T06:54:09.118Z,4.90
2023-04-03T06:56:36.663Z,4.90
2023-04-03T06:59:04.174Z,5.00
2023-04-03T07:01:31.941Z,5.10
2023-04-03T07:03:59.142Z,5.20
2023-04-03T07:06:28.071Z,5.30
2023-04-03T07:08:56.398Z,5.30
2023-04-03T07:11:23.956Z,5.40
2023-04-03T07:13:52.001Z,5.50
2023-04-03T07:16:19.365Z,5.50
2023-04-03T07:18:47.438Z,5.60
2023-04-03T07:21:14.508Z,5.70
2023-04-03T07:23:41.597Z,5.80
2023-04-03T07:26:09.019Z,5.90
2023-04-03T07:28:37.430Z,5.90
2023-04-03T07:31:09.234Z,6.00
2023-04-03T07:33:36.915Z,6.10
2023-04-03T07:36:05.510Z,6.10
2023-04-03T07:38:32.391Z,6.20
2023-04-03T07:40:59.545Z,6.30
2023-04-03T07:43:26.984Z,6.30
2023-04-03T07:45:55.130Z,6.40
2023-04-03T07:48:26.494Z,6.50
2023-04-03T07:50:53.645Z,6.60
2023-04-03T07:53:20.814Z,6.70
2023-04-03T07:55:52.463Z,6.70
2023-04-03T07:58:19.868Z,6.90
2023-04-03T08:00:47.628Z,7.00
2023-04-03T08:03:17.666Z,7.10
2023-04-03T08:05:48.936Z,7.20
2023-04-03T08:08:21.659Z,7.30
2023-04-03T08:10:53.619Z,7.40
2023-04-03T08:13:22.394Z,7.50
2023-04-03T08:15:49.562Z,7.60
2023-04-03T08:18:17.234Z,7.70
2023-04-03T08:20:46.000Z,7.80
2023-04-03T08:23:12.971Z,7.90
2023-04-03T08:25:42.023Z,8.00
2023-04-03T08:28:12.793Z,8.00
2023-04-03T08:30:43.710Z,8.10
2023-04-03T08:33:11.708Z,8.20
2023-04-03T08:35:43.246Z,8.30
2023-04-03T08:38:11.461Z,8.40
2023-04-03T08:40:39.236Z,8.50
2023-04-03T08:43:14.949Z,8.50
2023-04-03T08:45:56.436Z,8.60
2023-04-03T08:48:32.012Z,8.70
2023-04-03T08:51:10.824Z,8.70
2023-04-03T08:53:47.425Z,8.80
2023-04-03T08:56:19.059Z,8.90
2023-04-03T08:59:00.738Z,8.90
2023-04-03T09:01:37.519Z,9.00
2023-04-03T09:04:14.728Z,9.10
2023-04-03T09:06:47.302Z,9.10
2023-04-03T09:09:22.837Z,9.20
2023-04-03T09:12:31.025Z,9.20
2023-04-03T09:15:31.251Z,9.30
2023-04-03T09:18:24.616Z,9.50
2023-04-03T09:21:46.082Z,9.60
2023-04-03T09:24:17.633Z,9.70
2023-04-03T09:26:57.136Z,9.80
2023-04-03T09:29:25.885Z,9.90
2023-04-03T09:32:10.579Z,9.90
2023-04-03T09:34:39.034Z,9.90
2023-04-03T09:37:09.981Z,9.90
2023-04-03T09:39:55.359Z,10.00
2023-04-03T09:42:26.113Z,10.10
2023-04-03T09:45:00.447Z,10.10
2023-04-03T09:47:31.765Z,10.20
2023-04-03T09:50:22.932Z,10.10
2023-04-03T09:52:54.820Z,10.20
2023-04-03T09:55:29.947Z,10.20
2023-04-03T09:58:05.151Z,10.30
2023-04-03T10:00:37.777Z,10.40
2023-04-03T10:03:06.010Z,10.40
2023-04-03T10:05:42.449Z,10.40
2023-04-03T10:08:15.409Z,10.50
2023-04-03T10:10:49.138Z,10.50
2023-04-03T10:13:24.349Z,10.50
2023-04-03T10:16:12.324Z,10.60
2023-04-03T10:18:59.333Z,10.60
2023-04-03T10:21:51.949Z,10.70
2023-04-03T10:25:04.300Z,10.70
2023-04-03T10:27:57.791Z,10.80
2023-04-03T10:30:47.539Z,10.80
2023-04-03T10:33:48.217Z,10.80
2023-04-03T10:36:54.418Z,10.90
2023-04-03T10:40:06.011Z,10.90
2023-04-03T10:42:48.411Z,11.00
2023-04-03T10:45:28.750Z,11.10
2023-04-03T10:48:39.078Z,11.20
2023-04-03T10:51:27.491Z,11.30
2023-04-03T10:54:00.897Z,11.40
2023-04-03T10:56:51.199Z,11.50
2023-04-03T10:59:50.831Z,11.60
2023-04-03T11:02:31.787Z,11.70
2023-04-03T11:05:16.486Z,11.70
2023-04-03T11:07:51.361Z,11.80
2023-04-03T11:10:46.323Z,11.90
2023-04-03T11:13:35.492Z,12.00
2023-04-03T11:16:06.378Z,12.00
2023-04-03T11:19:08.136Z,12.10
2023-04-03T11:21:45.421Z,12.10
2023-04-03T11:24:25.277Z,12.20
2023-04-03T11:26:53.984Z,12.30
2023-04-03T11:32:32.331Z,12.40
2023-04-03T11:35:03.468Z,12.50
2023-04-03T11:37:45.636Z,12.60
2023-04-03T11:40:28.816Z,12.60
2023-04-03T11:43:01.560Z,12.70
2023-04-03T11:45:53.901Z,12.70
2023-04-03T11:48:29.869Z,12.70
2023-04-03T11:50:58.620Z,12.80
2023-04-03T11:53:37.777Z,12.80
2023-04-03T11:56:29.378Z,12.80
2023-04-03T11:59:24.796Z,12.80
2023-04-03T12:01:59.113Z,12.90
2023-04-03T12:04:28.598Z,12.90
2023-04-03T12:07:13.703Z,12.90
2023-04-03T12:09:43.519Z,12.90
2023-04-03T12:12:39.521Z,12.90
2023-04-03T12:15:25.150Z,12.90
2023-04-03T12:17:52.675Z,13.00
2023-04-03T12:20:50.541Z,13.00
2023-04-03T12:23:37.114Z,13.10
2023-04-03T12:27:02.631Z,13.10
2023-04-03T12:29:35.157Z,13.10
2023-04-03T12:32:04.877Z,13.10
2023-04-03T12:35:02.668Z,13.10
2023-04-03T12:38:04.857Z,13.10
2023-04-03T12:40:48.994Z,13.10
2023-04-03T12:43:43.825Z,13.20
2023-04-03T12:46:16.880Z,13.20
2023-04-03T12:48:52.056Z,13.30
2023-04-03T12:51:42.053Z,13.30
2023-04-03T12:54:22.877Z,13.30
2023-04-03T12:56:49.832Z,13.40
2023-04-03T12:59:27.773Z,13.40
2023-04-03T13:02:01.697Z,13.40
2023-04-03T13:04:31.498Z,13.50
2023-04-03T13:06:59.127Z,13.50
2023-04-03T13:09:31.301Z,13.50
2023-04-03T13:12:14.383Z,13.50
2023-04-03T13:14:41.961Z,13.60
2023-04-03T13:17:16.264Z,13.60
2023-04-03T13:19:46.906Z,13.70
2023-04-03T13:22:44.614Z,13.60
2023-04-03T13:25:16.964Z,13.60
2023-04-03T13:27:45.641Z,13.60
2023-04-03T13:30:40.547Z,13.50
2023-04-03T13:33:23.880Z,13.50
2023-04-03T13:36:21.218Z,13.50
2023-04-03T13:39:05.265Z,13.50
2023-04-03T13:41:39.687Z,13.60
2023-04-03T13:44:22.906Z,13.60
2023-04-03T13:47:01.683Z,13.60
2023-04-03T13:49:37.669Z,13.60
2023-04-03T13:52:33.408Z,13.60
2023-04-03T13:55:24.622Z,13.60
2023-04-03T13:57:58.578Z,13.70
2023-04-03T14:00:36.747Z,13.70
2023-04-03T14:03:14.295Z,13.70
2023-04-03T14:05:41.301Z,13.70
2023-04-03T14:08:08.256Z,13.80
2023-04-03T14:10:35.643Z,13.80
2023-04-03T14:13:03.038Z,13.80
2023-04-03T14:15:32.961Z,13.80
2023-04-03T14:18:02.924Z,13.80
2023-04-03T14:20:30.857Z,13.80
2023-04-03T14:22:57.957Z,13.80
2023-04-03T14:25:25.010Z,13.80
2023-04-03T14:27:54.736Z,13.80
2023-04-03T14:30:32.839Z,13.80
2023-04-03T14:33:02.147Z,13.80
2023-04-03T14:35:29.580Z,13.90
2023-04-03T14:37:56.984Z,13.90
2023-04-03T14:40:28.685Z,13.80
2023-04-03T14:42:56.309Z,13.90
2023-04-03T14:45:24.773Z,13.80
2023-04-03T14:47:57.501Z,13.80
2023-04-03T14:50:27.982Z,13.80
2023-04-03T14:52:59.438Z,13.80
2023-04-03T14:55:28.542Z,13.80
2023-04-03T14:57:55.672Z,13.70
2023-04-03T15:00:24.137Z,13.70
2023-04-03T15:02:51.905Z,13.70
2023-04-03T15:05:20.433Z,13.70
2023-04-03T15:07:55.794Z,13.70
2023-04-03T15:10:26.901Z,13.60
2023-04-03T15:12:55.575Z,13.60
2023-04-03T15:15:24.484Z,13.60
2023-04-03T15:17:58.854Z,13.60
2023-04-03T15:20:27.928Z,13.60
2023-04-03T15:22:57.169Z,13.60
2023-04-03T15:25:26.160Z,13.50
2023-04-03T15:27:55.568Z,13.60
2023-04-03T15:30:22.815Z,13.50
2023-04-03T15:32:51.085Z,13.50
2023-04-03T15:35:19.000Z,13.40
2023-04-03T15:37:46.277Z,13.40
2023-04-03T15:42:55.036Z,13.30
2023-04-03T15:45:22.724Z,13.40
2023-04-03T15:47:49.868Z,13.40
2023-04-03T15:50:17.146Z,13.30
2023-04-03T15:52:44.232Z,13.30
2023-04-03T15:55:11.121Z,13.20
2023-04-03T16:00:10.797Z,13.10
2023-04-03T16:02:37.866Z,13.10
2023-04-03T16:05:05.391Z,13.10
2023-04-03T16:07:32.291Z,13.00
2023-04-03T16:09:59.409Z,13.00
2023-04-03T16:12:26.453Z,13.00
2023-04-03T16:14:53.261Z,12.90
2023-04-03T16:17:20.315Z,12.90
2023-04-03T16:19:47.311Z,12.90
2023-04-03T16:22:14.487Z,12.80
2023-04-03T16:24:41.501Z,12.80
2023-04-03T16:27:08.417Z,12.70
2023-04-03T16:29:35.278Z,12.70
2023-04-03T16:32:03.374Z,12.60
2023-04-03T16:34:33.061Z,12.60
2023-04-03T16:37:00.816Z,12.60
2023-04-03T16:39:28.263Z,12.60
2023-04-03T16:41:55.263Z,12.50
2023-04-03T16:44:22.076Z,12.50
2023-04-03T16:46:49.071Z,12.50
2023-04-03T16:49:16.585Z,12.40
2023-04-03T16:51:43.625Z,12.40
2023-04-03T16:54:12.486Z,12.30
2023-04-03T16:56:39.414Z,12.30
2023-04-03T16:59:06.723Z,12.20
2023-04-03T17:01:33.921Z,12.20
2023-04-03T17:04:01.136Z,12.10
2023-04-03T17:06:28.027Z,12.00
2023-04-03T17:08:54.854Z,12.00
2023-04-03T17:11:29.942Z,11.90
2023-04-03T17:13:56.883Z,11.80
2023-04-03T17:16:25.473Z,11.80
2023-04-03T17:18:54.656Z,11.70
2023-04-03T17:21:22.450Z,11.60
2023-04-03T17:23:58.512Z,11.50
2023-04-03T17:26:27.141Z,11.50
2023-04-03T17:28:54.466Z,11.40
2023-04-03T17:31:21.626Z,11.40
2023-04-03T17:33:48.457Z,11.30
2023-04-03T17:36:15.790Z,11.20
2023-04-03T17:38:42.645Z,11.10
2023-04-03T17:41:10.056Z,11.00
2023-04-03T17:43:36.985Z,11.00
2023-04-03T17:46:10.802Z,10.90
2023-04-03T17:48:41.174Z,10.80
2023-04-03T17:51:14.448Z,10.80
2023-04-03T17:53:42.535Z,10.70
2023-04-03T17:56:14.942Z,10.60
2023-04-03T17:58:42.261Z,10.50
2023-04-03T18:01:19.252Z,10.50
2023-04-03T18:03:47.535Z,10.40
2023-04-03T18:06:18.640Z,10.40
2023-04-03T18:08:55.942Z,10.30
2023-04-03T18:11:28.024Z,10.30
2023-04-03T18:13:59.561Z,10.20
2023-04-03T18:16:27.611Z,10.20
2023-04-03T18:21:41.988Z,10.00
2023-04-03T18:24:15.709Z,9.90
2023-04-03T18:26:47.978Z,9.90
2023-04-03T18:29:16.077Z,9.80
2023-04-03T18:31:50.481Z,9.80
2023-04-03T18:34:17.387Z,9.70
2023-04-03T18:36:44.212Z,9.70
2023-04-03T18:39:11.101Z,9.60
2023-04-03T18:41:38.844Z,9.50
2023-04-03T18:44:12.231Z,9.50
2023-04-03T18:46:40.080Z,9.50
2023-04-03T18:49:08.156Z,9.40
2023-04-03T18:51:35.272Z,9.30
2023-04-03T18:54:02.758Z,9.30
2023-04-03T18:56:31.313Z,9.20
2023-04-03T18:58:58.590Z,9.20
2023-04-03T19:01:25.697Z,9.10
2023-04-03T19:03:52.855Z,9.10
2023-04-03T19:06:19.944Z,9.00
2023-04-03T19:08:48.359Z,9.00
2023-04-03T19:11:15.434Z,8.90
2023-04-03T19:13:46.773Z,8.90
2023-04-03T19:16:29.294Z,8.80
2023-04-03T19:18:56.185Z,8.80
2023-04-03T19:21:22.959Z,8.70
2023-04-03T19:23:50.386Z,8.70
2023-04-03T19:26:17.566Z,8.60
2023-04-03T19:28:47.020Z,8.60
2023-04-03T19:31:17.346Z,8.50
2023-04-03T19:33:45.296Z,8.50
2023-04-03T19:36:13.018Z,8.40
2023-04-03T19:38:40.170Z,8.40
2023-04-03T19:41:15.071Z,8.30
2023-04-03T19:43:42.389Z,8.20
2023-04-03T19:46:10.244Z,8.20
2023-04-03T19:48:37.499Z,8.20
2023-04-03T19:51:06.057Z,8.10
2023-04-03T19:53:32.992Z,8.10
2023-04-03T19:56:01.009Z,8.00
2023-04-03T19:58:29.855Z,8.00
2023-04-03T20:00:58.332Z,7.90
2023-04-03T20:03:26.659Z,7.90
2023-04-03T20:05:54.710Z,7.80
2023-04-03T20:08:21.678Z,7.80
2023-04-03T20:10:48.962Z,7.70
2023-04-03T20:13:15.807Z,7.70
2023-04-03T20:15:44.827Z,7.60
2023-04-03T20:18:20.410Z,7.60
2023-04-03T20:20:55.849Z,7.50
2023-04-03T20:23:23.664Z,7.50
2023-04-03T20:26:05.863Z,7.40
2023-04-03T20:28:36.606Z,7.30
2023-04-03T20:31:03.966Z,7.30
2023-04-03T20:33:30.853Z,7.20
2023-04-03T20:35:58.491Z,7.20
2023-04-03T20:38:25.486Z,7.10
2023-04-03T20:40:52.415Z,7.10
2023-04-03T20:43:21.878Z,7.00
2023-04-03T20:45:49.375Z,7.00
2023-04-03T20:48:17.970Z,6.90
2023-04-03T20:50:46.338Z,6.90
2023-04-03T20:53:15.166Z,6.80
2023-04-03T20:55:42.466Z,6.80
2023-04-03T20:58:09.737Z,6.70
2023-04-03T21:00:37.763Z,6.70
2023-04-03T21:03:05.603Z,6.70
2023-04-03T21:05:37.356Z,6.60
2023-04-03T21:09:01.303Z,6.50
2023-04-03T21:12:24.805Z,6.40
2023-04-03T21:15:55.182Z,6.40
2023-04-03T21:19:00.680Z,6.30
2023-04-03T21:21:27.665Z,6.30
2023-04-03T21:23:55.866Z,6.20
2023-04-03T21:26:26.470Z,6.20
2023-04-03T21:28:54.126Z,6.20
2023-04-03T21:31:22.132Z,6.20
2023-04-03T21:33:49.737Z,6.10
2023-04-03T21:36:16.952Z,6.10
2023-04-03T21:38:45.875Z,6.00
2023-04-03T21:41:12.721Z,6.00
2023-04-03T21:43:39.814Z,6.00
2023-04-03T21:46:06.723Z,5.90
2023-04-03T21:48:36.056Z,5.90
2023-04-03T21:51:04.898Z,5.90
2023-04-03T21:53:33.917Z,5.80
2023-04-03T21:56:02.382Z,5.80
2023-04-03T21:58:31.984Z,5.80
2023-04-03T22:01:15.128Z,5.70
2023-04-03T22:03:44.144Z,5.70
2023-04-03T22:06:13.961Z,5.70
2023-04-03T22:08:41.102Z,5.60
2023-04-03T22:11:14.993Z,5.60
2023-04-03T22:13:43.643Z,5.50
2023-04-03T22:16:12.663Z,5.50
2023-04-03T22:18:39.513Z,5.50
2023-04-03T22:21:08.235Z,5.40
2023-04-03T22:23:35.739Z,5.40
2023-04-03T22:26:08.608Z,5.40
2023-04-03T22:28:42.867Z,5.40
2023-04-03T22:31:11.637Z,5.30
2023-04-03T22:33:38.843Z,5.30
2023-04-03T22:36:08.104Z,5.20
2023-04-03T22:38:35.536Z,5.20
2023-04-03T22:41:05.495Z,5.20
2023-04-03T22:43:34.487Z,5.10
2023-04-03T22:46:08.518Z,5.10
2023-04-03T22:48:37.052Z,5.10
2023-04-03T22:51:07.561Z,5.00
2023-04-03T22:53:38.351Z,5.00
2023-04-03T22:56:13.914Z,5.00
2023-04-03T22:58:41.026Z,4.90
2023-04-03T23:01:13.542Z,4.90
2023-04-03T23:03:42.241Z,4.90
2023-04-03T23:06:10.825Z,4.80
2023-04-03T23:08:38.942Z,4.80
2023-04-03T23:11:12.260Z,4.80
2023-04-03T23:13:39.198Z,4.70
2023-04-03T23:16:06.924Z,4.70
2023-04-03T23:18:33.925Z,4.60
2023-04-03T23:21:03.491Z,4.60
2023-04-03T23:23:31.137Z,4.60
2023-04-03T23:26:01.535Z,4.50
2023-04-03T23:28:29.692Z,4.50
2023-04-03T23:31:02.872Z,4.50
2023-04-03T23:33:31.009Z,4.40
2023-04-03T23:35:59.089Z,4.40
2023-04-03T23:38:26.252Z,4.40
2023-04-03T23:40:53.186Z,4.30
2023-04-03T23:43:20.013Z,4.30
2023-04-03T23:45:47.454Z,4.30
2023-04-03T23:48:14.392Z,4.20
2023-04-03T23:50:42.527Z,4.20
2023-04-03T23:53:09.990Z,4.10
2023-04-03T23:55:36.822Z,4.10
2023-04-03T23:58:03.667Z,4.10
